Time;durP1;ratioP1;P1;durP2;ratioP2;P2;SDS_P1;SDS_P2;PMS_P1;PMS_P2;Temp;Humidity;BMP_temperature;BMP_pressure;BME280_temperature;BME280_humidity;BME280_pressure;Samples;Min_cycle;Max_cycle;Signal;HPM_P1;HPM_P2
2023/06/16 00:00:19;;;;;;;7.90;4.03;;;;;;;15.44;100.00;100946.00;681828;28;1161;-52
2023/06/16 00:00:43;;;;;;;6.88;3.60;;;;;;;15.43;100.00;100947.75;682385;28;1306;-53
2023/06/16 00:01:08;;;;;;;5.63;3.70;;;;;;;15.44;100.00;100941.59;682357;28;1493;-51
2023/06/16 00:01:31;;;;;;;5.30;3.78;;;;;;;15.43;100.00;100942.47;680385;29;4870;-53
2023/06/16 00:01:53;;;;;;;8.23;4.07;;;;;;;15.42;100.00;100948.66;680892;29;1279;-53
2023/06/16 00:02:13;;;;;;;6.30;3.90;;;;;;;15.42;100.00;100947.78;680932;28;1509;-52
2023/06/16 00:02:34;;;;;;;5.47;3.73;;;;;;;15.42;100.00;100945.16;681233;29;1184;-54
2023/06/16 00:02:57;;;;;;;6.30;3.60;;;;;;;15.40;100.00;100944.34;681729;29;1177;-53
2023/06/16 00:03:17;;;;;;;6.65;3.85;;;;;;;15.40;100.00;100946.97;681344;29;1209;-53
2023/06/16 00:03:41;;;;;;;6.70;4.00;;;;;;;15.35;100.00;100949.66;681497;28;1158;-53
2023/06/16 00:04:03;;;;;;;5.85;3.92;;;;;;;15.33;100.00;100947.06;679703;28;1513;-52
2023/06/16 00:04:25;;;;;;;5.82;3.95;;;;;;;15.37;100.00;100947.00;680001;28;4396;-51
2023/06/16 00:04:49;;;;;;;5.57;3.85;;;;;;;15.37;100.00;100949.63;678395;29;1376;-49
2023/06/16 00:05:11;;;;;;;5.78;3.78;;;;;;;15.36;100.00;100945.28;677868;29;1483;-50
2023/06/16 00:05:34;;;;;;;7.53;3.90;;;;;;;15.35;100.00;100944.41;678173;29;1169;-52
2023/06/16 00:05:58;;;;;;;5.95;3.90;;;;;;;15.35;100.00;100943.53;679029;29;1169;-54
2023/06/16 00:06:29;;;;;;;5.80;4.10;;;;;;;15.33;100.00;100944.44;679736;29;1146;-53
2023/06/16 00:06:50;;;;;;;6.35;4.30;;;;;;;15.29;100.00;100944.53;680854;29;1161;-51
2023/06/16 00:07:10;;;;;;;6.30;3.80;;;;;;;15.30;100.00;100947.13;679981;28;4349;-52
2023/06/16 00:07:33;;;;;;;7.10;3.90;;;;;;;15.27;100.00;100941.94;682210;29;1255;-54
2023/06/16 00:07:53;;;;;;;5.93;3.67;;;;;;;15.27;100.00;100941.94;682226;29;1090;-53
2023/06/16 00:08:15;;;;;;;7.20;4.00;;;;;;;15.28;100.00;100937.53;680533;28;1745;-52
2023/06/16 00:08:35;;;;;;;7.85;3.97;;;;;;;15.30;100.00;100941.03;682143;29;1201;-53
2023/06/16 00:08:57;;;;;;;9.07;4.07;;;;;;;15.26;100.00;100940.19;680827;28;1627;-51
2023/06/16 00:09:21;;;;;;;6.40;3.88;;;;;;;15.26;100.00;100939.34;681380;28;1225;-53
2023/06/16 00:09:43;;;;;;;5.55;3.65;;;;;;;15.27;100.00;100936.69;681599;28;1319;-52
2023/06/16 00:10:07;;;;;;;5.60;3.50;;;;;;;15.30;100.00;100947.13;680961;28;1548;-51
2023/06/16 00:10:28;;;;;;;5.45;3.58;;;;;;;15.30;100.00;100938.38;681223;29;5046;-53
2023/06/16 00:10:48;;;;;;;5.67;3.73;;;;;;;15.33;100.00;100935.69;681963;29;1216;-52
2023/06/16 00:11:09;;;;;;;5.60;3.90;;;;;;;15.36;100.00;100945.28;681107;28;1765;-50
2023/06/16 00:11:29;;;;;;;5.80;3.97;;;;;;;15.36;100.00;100942.66;681647;29;1028;-53
2023/06/16 00:11:49;;;;;;;6.78;4.03;;;;;;;15.35;100.00;100940.91;681309;28;1118;-50
2023/06/16 00:12:10;;;;;;;7.10;3.87;;;;;;;15.32;100.00;100940.06;680765;28;1599;-52
2023/06/16 00:12:30;;;;;;;6.90;3.73;;;;;;;15.28;100.00;100943.66;680781;28;1200;-50
2023/06/16 00:12:51;;;;;;;6.40;3.72;;;;;;;15.27;100.00;100943.69;681751;28;1046;-50
2023/06/16 00:13:11;;;;;;;5.80;3.70;;;;;;;15.25;100.00;100943.72;681321;28;4566;-53
2023/06/16 00:13:33;;;;;;;6.45;3.75;;;;;;;15.24;100.00;100939.34;682678;28;1152;-53
2023/06/16 00:13:55;;;;;;;5.85;3.90;;;;;;;15.19;100.00;100933.31;683420;28;1145;-53
2023/06/16 00:14:15;;;;;;;5.65;3.75;;;;;;;15.22;100.00;100942.94;684580;28;2169;-51
2023/06/16 00:14:36;;;;;;;5.85;4.00;;;;;;;15.23;100.00;100945.53;683580;28;1145;-51
2023/06/16 00:14:56;;;;;;;5.88;4.00;;;;;;;15.24;100.00;100941.97;681933;28;1584;-51
2023/06/16 00:15:17;;;;;;;6.17;3.80;;;;;;;15.22;100.00;100941.16;682166;28;1150;-53
2023/06/16 00:15:37;;;;;;;5.83;3.63;;;;;;;15.24;100.00;100936.72;681559;28;1212;-53
2023/06/16 00:15:57;;;;;;;5.78;3.75;;;;;;;15.22;100.00;100938.53;679686;28;1982;-53
2023/06/16 00:16:21;;;;;;;5.47;3.53;;;;;;;15.22;100.00;100940.31;681685;28;4398;-52
2023/06/16 00:16:43;;;;;;;6.05;3.92;;;;;;;15.22;100.00;100935.88;681256;29;1192;-52
2023/06/16 00:17:05;;;;;;;5.78;4.10;;;;;;;15.23;100.00;100937.63;681153;28;1573;-52
2023/06/16 00:17:26;;;;;;;5.57;3.85;;;;;;;15.24;100.00;100939.34;683029;28;1435;-53
2023/06/16 00:17:47;;;;;;;6.10;3.93;;;;;;;15.21;100.00;100935.94;678965;29;1423;-53
2023/06/16 00:18:07;;;;;;;5.37;3.83;;;;;;;15.19;100.00;100942.97;678259;29;1587;-52
2023/06/16 00:18:29;;;;;;;6.03;3.67;;;;;;;15.20;100.00;100947.34;677629;29;1092;-53
2023/06/16 00:18:57;;;;;;;5.32;3.60;;;;;;;15.21;100.00;100944.69;677167;29;1201;-52
2023/06/16 00:19:18;;;;;;;6.18;3.92;;;;;;;15.21;100.00;100938.56;678223;28;4408;-48
2023/06/16 00:19:40;;;;;;;6.22;4.10;;;;;;;15.19;100.00;100935.97;681332;29;3220;-53
2023/06/16 00:20:01;;;;;;;6.05;3.88;;;;;;;15.19;100.00;100941.22;679819;28;1513;-53
2023/06/16 00:20:22;;;;;;;6.20;3.83;;;;;;;15.19;100.00;100941.22;681997;28;1273;-52
2023/06/16 00:20:42;;;;;;;5.15;3.70;;;;;;;15.22;100.00;100942.94;681653;29;1375;-51
2023/06/16 00:21:03;;;;;;;5.17;3.70;;;;;;;15.23;100.00;100939.38;681201;28;1652;-51
2023/06/16 00:21:35;;;;;;;5.60;4.00;;;;;;;15.27;100.00;100944.56;681744;28;1200;-53
2023/06/16 00:21:59;;;;;;;6.13;3.85;;;;;;;15.28;100.00;100935.75;679908;28;1533;-52
2023/06/16 00:22:20;;;;;;;6.13;3.80;;;;;;;15.30;100.00;100947.13;680341;28;4564;-49
2023/06/16 00:22:41;;;;;;;6.40;4.10;;;;;;;15.30;100.00;100939.25;679868;29;1141;-54
2023/06/16 00:23:02;;;;;;;6.38;3.80;;;;;;;15.31;100.00;100943.63;680198;28;1481;-53
2023/06/16 00:23:23;;;;;;;6.30;4.00;;;;;;;15.32;100.00;100952.38;680543;28;1275;-53
2023/06/16 00:23:43;;;;;;;6.43;3.92;;;;;;;15.30;100.00;100941.03;681132;28;1174;-51
2023/06/16 00:24:08;;;;;;;5.53;3.80;;;;;;;15.31;100.00;100946.25;679614;28;1557;-54
2023/06/16 00:24:28;;;;;;;6.20;3.97;;;;;;;15.32;100.00;100944.47;680323;29;1088;-52
2023/06/16 00:24:49;;;;;;;6.43;3.83;;;;;;;15.32;100.00;100940.06;682223;28;1085;-52
2023/06/16 00:25:09;;;;;;;6.10;3.60;;;;;;;15.31;100.00;100943.63;680318;28;4567;-52
2023/06/16 00:25:29;;;;;;;5.45;3.72;;;;;;;15.33;100.00;100946.22;681425;28;1186;-51
2023/06/16 00:25:50;;;;;;;5.20;3.60;;;;;;;15.35;100.00;100943.53;682114;28;1256;-52
2023/06/16 00:26:10;;;;;;;5.20;3.53;;;;;;;15.34;100.00;100947.97;680368;28;1597;-52
2023/06/16 00:26:35;;;;;;;6.90;3.90;;;;;;;15.31;100.00;100942.72;678858;29;1309;-52
2023/06/16 00:26:55;;;;;;;5.53;3.97;;;;;;;15.28;100.00;100943.66;675337;29;1642;-53
2023/06/16 00:27:17;;;;;;;5.20;3.77;;;;;;;15.27;100.00;100941.94;673643;29;1404;-52
2023/06/16 00:27:37;;;;;;;5.80;3.63;;;;;;;15.26;100.00;100942.84;673482;29;1202;-53
2023/06/16 00:27:58;;;;;;;6.83;3.73;;;;;;;15.28;100.00;100943.66;673028;29;1686;-52
2023/06/16 00:28:20;;;;;;;6.05;3.70;;;;;;;15.29;100.00;100948.03;675728;29;4328;-50
2023/06/16 00:28:41;;;;;;;5.43;3.80;;;;;;;15.30;100.00;100947.13;677242;29;1599;-52
2023/06/16 00:29:02;;;;;;;6.63;3.83;;;;;;;15.30;100.00;100947.13;678912;29;1531;-50
2023/06/16 00:29:23;;;;;;;5.85;3.63;;;;;;;15.32;100.00;100944.47;681029;29;1247;-52
2023/06/16 00:29:43;;;;;;;5.35;3.60;;;;;;;15.35;100.00;100949.66;678670;29;1304;-52
2023/06/16 00:30:04;;;;;;;5.30;3.60;;;;;;;15.35;100.00;100951.44;678388;29;1623;-53
2023/06/16 00:30:25;;;;;;;6.43;3.80;;;;;;;15.35;100.00;100940.91;678680;29;1294;-54
2023/06/16 00:30:45;;;;;;;6.47;4.20;;;;;;;15.30;100.00;100941.88;676815;29;1411;-50
2023/06/16 00:31:05;;;;;;;6.40;4.10;;;;;;;15.29;100.00;100948.03;675789;29;1472;-52
2023/06/16 00:31:26;;;;;;;5.13;3.53;;;;;;;15.28;100.00;100948.91;674760;29;4524;-52
2023/06/16 00:31:46;;;;;;;4.90;3.70;;;;;;;15.29;100.00;100945.41;676044;29;1312;-54
2023/06/16 00:32:07;;;;;;;5.80;3.90;;;;;;;15.28;100.00;100945.44;675772;29;1390;-49
2023/06/16 00:32:29;;;;;;;6.28;3.83;;;;;;;15.27;100.00;100941.94;676837;29;1095;-50
2023/06/16 00:32:50;;;;;;;6.35;4.05;;;;;;;15.28;100.00;100946.28;679534;29;1193;-53
2023/06/16 00:33:12;;;;;;;5.60;3.43;;;;;;;15.29;100.00;100947.19;678947;29;1013;-51
2023/06/16 00:33:34;;;;;;;6.47;3.80;;;;;;;15.28;100.00;100948.91;678657;29;1086;-54
2023/06/16 00:33:55;;;;;;;7.00;3.95;;;;;;;15.28;100.00;100943.66;677398;29;1135;-55
2023/06/16 00:34:15;;;;;;;5.80;3.60;;;;;;;15.28;100.00;100938.38;673418;29;4346;-52
2023/06/16 00:34:36;;;;;;;6.30;3.70;;;;;;;15.28;100.00;100948.06;671477;29;1349;-50
2023/06/16 00:34:57;;;;;;;6.50;4.07;;;;;;;15.28;100.00;100938.38;674561;29;1625;-52
2023/06/16 00:35:17;;;;;;;5.43;3.67;;;;;;;15.28;100.00;100943.66;674472;29;1079;-54
2023/06/16 00:35:37;;;;;;;7.10;3.70;;;;;;;15.28;100.00;100941.03;675716;29;1207;-53
2023/06/16 00:35:58;;;;;;;5.97;3.77;;;;;;;15.27;100.00;100943.69;675155;29;1907;-54
2023/06/16 00:36:18;;;;;;;5.17;3.77;;;;;;;15.27;100.00;100936.69;679446;29;1204;-53
2023/06/16 00:36:39;;;;;;;5.90;4.00;;;;;;;15.28;100.00;100940.16;679087;29;1207;-53
2023/06/16 00:36:59;;;;;;;6.00;3.53;;;;;;;15.30;100.00;100941.88;678523;29;1586;-52
2023/06/16 00:37:19;;;;;;;6.35;3.40;;;;;;;15.30;100.00;100939.25;679250;29;4557;-53
2023/06/16 00:37:40;;;;;;;5.30;3.57;;;;;;;15.31;100.00;100943.63;679217;29;1042;-50
2023/06/16 00:38:00;;;;;;;5.57;3.57;;;;;;;15.32;100.00;100940.06;677669;29;3260;-50
2023/06/16 00:38:21;;;;;;;6.33;3.67;;;;;;;15.29;100.00;100940.13;683975;29;1291;-53
2023/06/16 00:38:44;;;;;;;6.03;3.70;;;;;;;15.28;100.00;100943.66;683458;29;1145;-52
2023/06/16 00:39:04;;;;;;;6.30;4.07;;;;;;;15.28;100.00;100943.66;680145;28;1489;-50
2023/06/16 00:39:25;;;;;;;5.63;3.90;;;;;;;15.27;100.00;100938.41;681513;28;1386;-53
2023/06/16 00:39:46;;;;;;;5.23;3.50;;;;;;;15.26;100.00;100939.34;683647;28;1418;-53
2023/06/16 00:40:07;;;;;;;4.72;3.42;;;;;;;15.24;100.00;100941.97;683253;28;1528;-53
2023/06/16 00:40:27;;;;;;;4.85;3.55;;;;;;;15.23;100.00;100940.25;682361;28;4387;-52
2023/06/16 00:40:48;;;;;;;5.50;3.90;;;;;;;15.24;100.00;100936.72;681907;28;1422;-51
2023/06/16 00:41:08;;;;;;;5.70;3.80;;;;;;;15.23;100.00;100939.38;677866;29;1545;-52
2023/06/16 00:41:29;;;;;;;4.87;3.60;;;;;;;15.23;100.00;100935.00;678123;29;1017;-52
2023/06/16 00:41:50;;;;;;;5.40;3.90;;;;;;;15.25;100.00;100940.22;679021;29;1407;-52
2023/06/16 00:42:10;;;;;;;5.25;3.78;;;;;;;15.24;100.00;100931.44;677689;29;5191;-52
2023/06/16 00:42:31;;;;;;;6.03;3.80;;;;;;;15.22;100.00;100935.88;676908;29;1113;-53
2023/06/16 00:42:57;;;;;;;5.32;3.58;;;;;;;15.24;100.00;100943.75;677411;29;1276;-49
2023/06/16 00:43:18;;;;;;;5.85;4.13;;;;;;;15.20;100.00;100935.03;678827;29;4666;-53
2023/06/16 00:43:39;;;;;;;5.83;4.03;;;;;;;15.21;100.00;100938.56;679769;29;1177;-53
2023/06/16 00:44:02;;;;;;;6.10;3.70;;;;;;;15.22;100.00;100932.41;677825;29;1601;-52
2023/06/16 00:44:22;;;;;;;5.88;3.58;;;;;;;15.23;100.00;100940.25;678405;29;1257;-51
2023/06/16 00:44:42;;;;;;;5.60;3.80;;;;;;;15.24;100.00;100931.44;680366;29;1251;-53
2023/06/16 00:45:03;;;;;;;5.35;3.75;;;;;;;15.25;100.00;100938.44;680108;28;1556;-54
2023/06/16 00:45:24;;;;;;;5.20;3.58;;;;;;;15.23;100.00;100937.63;682572;29;1192;-53
2023/06/16 00:45:44;;;;;;;6.20;3.85;;;;;;;15.23;100.00;100932.38;679486;29;1304;-51
2023/06/16 00:46:07;;;;;;;6.17;3.60;;;;;;;15.23;100.00;100932.38;675149;29;1528;-52
2023/06/16 00:46:29;;;;;;;5.75;3.90;;;;;;;15.22;100.00;100932.41;678994;29;4324;-52
2023/06/16 00:46:50;;;;;;;6.50;3.92;;;;;;;15.20;100.00;100935.03;679071;29;1252;-51
2023/06/16 00:47:11;;;;;;;6.30;3.80;;;;;;;15.22;100.00;100933.25;678039;29;1637;-52
2023/06/16 00:47:31;;;;;;;6.10;3.90;;;;;;;15.24;100.00;100933.22;679866;29;1105;-52
2023/06/16 00:47:52;;;;;;;6.60;3.85;;;;;;;15.23;100.00;100937.63;682316;29;1223;-53
2023/06/16 00:48:12;;;;;;;6.25;3.67;;;;;;;15.20;100.00;100935.03;677912;29;1577;-54
2023/06/16 00:48:33;;;;;;;5.93;3.70;;;;;;;15.21;100.00;100928.03;679500;29;1235;-52
2023/06/16 00:48:56;;;;;;;6.13;3.60;;;;;;;15.21;100.00;100936.78;676656;29;1130;-52
2023/06/16 00:49:16;;;;;;;5.53;3.63;;;;;;;15.20;100.00;100935.03;670889;29;5861;-53
2023/06/16 00:49:37;;;;;;;5.13;3.67;;;;;;;15.20;100.00;100928.91;673614;29;1083;-51
2023/06/16 00:49:57;;;;;;;6.03;3.80;;;;;;;15.20;100.00;100929.78;672858;29;1549;-53
2023/06/16 00:50:18;;;;;;;7.07;3.80;;;;;;;15.19;100.00;100935.97;676701;29;1621;-52
2023/06/16 00:50:39;;;;;;;5.93;3.70;;;;;;;15.20;100.00;100935.03;677678;29;1050;-53
2023/06/16 00:51:00;;;;;;;5.07;3.70;;;;;;;15.20;100.00;100935.03;678275;29;1901;-53
2023/06/16 00:51:20;;;;;;;5.10;3.60;;;;;;;15.20;100.00;100940.31;680329;29;1212;-49
2023/06/16 00:51:42;;;;;;;6.10;3.77;;;;;;;15.22;100.00;100937.66;680779;29;1004;-53
2023/06/16 00:52:05;;;;;;;6.18;3.75;;;;;;;15.19;100.00;100933.31;680564;28;1490;-53
2023/06/16 00:52:29;;;;;;;5.75;3.35;;;;;;;15.20;100.00;100936.81;683110;28;5205;-52
2023/06/16 00:52:51;;;;;;;5.88;3.60;;;;;;;15.20;100.00;100931.53;684362;28;1145;-53
2023/06/16 00:53:12;;;;;;;6.18;3.70;;;;;;;15.21;100.00;100936.78;682020;28;1153;-52
2023/06/16 00:53:34;;;;;;;5.55;3.80;;;;;;;15.21;100.00;100939.41;684061;28;1400;-53
2023/06/16 00:53:55;;;;;;;6.20;3.63;;;;;;;15.20;100.00;100934.19;684149;28;1223;-54
2023/06/16 00:54:16;;;;;;;6.18;3.70;;;;;;;15.20;100.00;100935.03;682857;28;1999;-51
2023/06/16 00:54:37;;;;;;;5.32;3.50;;;;;;;15.20;100.00;100935.03;682524;28;1303;-51
2023/06/16 00:54:57;;;;;;;5.53;3.50;;;;;;;15.20;100.00;100937.66;682575;28;1734;-51
2023/06/16 00:55:21;;;;;;;6.47;3.60;;;;;;;15.19;100.00;100927.16;680595;28;4399;-52
2023/06/16 00:55:43;;;;;;;5.47;3.50;;;;;;;15.18;100.00;100926.31;681676;29;1977;-53
2023/06/16 00:56:03;;;;;;;5.50;3.53;;;;;;;15.17;100.00;100931.63;680530;28;1454;-51
2023/06/16 00:56:26;;;;;;;6.30;3.70;;;;;;;15.17;100.00;100934.25;679782;29;1168;-52
2023/06/16 00:56:46;;;;;;;5.60;3.65;;;;;;;15.15;100.00;100931.66;678564;29;1279;-54
2023/06/16 00:57:07;;;;;;;5.50;3.80;;;;;;;15.13;100.00;100928.16;675274;29;1612;-50
2023/06/16 00:57:28;;;;;;;5.57;3.60;;;;;;;15.13;100.00;100931.69;677173;29;1434;-53
2023/06/16 00:57:52;;;;;;;6.40;3.53;;;;;;;15.15;100.00;100936.91;679486;29;1145;-52
2023/06/16 00:58:14;;;;;;;5.65;3.40;;;;;;;15.12;100.00;100936.97;675434;29;4467;-51
2023/06/16 00:58:36;;;;;;;5.30;3.67;;;;;;;15.13;100.00;100934.31;678825;29;1156;-53
2023/06/16 00:58:56;;;;;;;5.72;3.50;;;;;;;15.13;100.00;100931.69;675969;29;1233;-50
2023/06/16 00:59:17;;;;;;;6.28;3.50;;;;;;;15.13;100.00;100928.16;679171;29;1111;-52
2023/06/16 00:59:38;;;;;;;5.35;3.50;;;;;;;15.13;100.00;100933.44;675731;29;1197;-54
2023/06/16 00:59:58;;;;;;;5.87;3.63;;;;;;;15.13;100.00;100933.44;674599;29;1573;-52
2023/06/16 01:00:19;;;;;;;5.53;3.47;;;;;;;15.13;100.00;100934.31;679047;29;1023;-51
2023/06/16 01:00:39;;;;;;;5.37;3.47;;;;;;;15.15;100.00;100929.00;678826;29;1070;-52
2023/06/16 01:00:59;;;;;;;5.65;3.58;;;;;;;15.15;100.00;100934.28;677491;29;1542;-52
2023/06/16 01:01:21;;;;;;;5.50;3.60;;;;;;;15.13;100.00;100929.03;679132;29;4544;-53
2023/06/16 01:01:42;;;;;;;6.43;3.40;;;;;;;15.10;100.00;100930.84;681137;29;1437;-51
2023/06/16 01:02:04;;;;;;;6.40;3.63;;;;;;;15.10;100.00;100936.13;679696;28;1454;-51
2023/06/16 01:02:26;;;;;;;6.32;3.67;;;;;;;15.11;100.00;100927.34;681477;29;1161;-52
2023/06/16 01:02:47;;;;;;;6.15;3.65;;;;;;;15.10;100.00;100929.09;680945;29;1201;-53
2023/06/16 01:03:13;;;;;;;5.32;3.50;;;;;;;15.10;100.00;100926.44;677868;29;1708;-52
2023/06/16 01:03:33;;;;;;;6.68;3.63;;;;;;;15.06;100.00;100932.66;675869;29;1190;-53
2023/06/16 01:03:55;;;;;;;5.63;3.63;;;;;;;15.06;100.00;100931.81;676465;29;1083;-52
2023/06/16 01:04:15;;;;;;;5.30;3.50;;;;;;;15.05;100.00;100930.06;677353;29;4509;-51
2023/06/16 01:04:36;;;;;;;5.93;3.60;;;;;;;15.04;100.00;100941.53;678305;29;1190;-53
2023/06/16 01:04:57;;;;;;;5.90;3.50;;;;;;;15.03;100.00;100931.88;678450;29;1071;-52
2023/06/16 01:05:21;;;;;;;6.03;3.75;;;;;;;15.03;100.00;100934.50;681313;28;1219;-52
2023/06/16 01:05:43;;;;;;;6.97;3.80;;;;;;;15.03;100.00;100927.47;680915;28;1208;-53
2023/06/16 01:06:13;;;;;;;7.85;3.95;;;;;;;15.02;100.00;100932.78;679975;28;1604;-52
2023/06/16 01:06:57;;;;;;;5.97;3.80;;;;;;;15.00;100.00;100931.94;682310;29;1208;-54
2023/06/16 01:07:28;;;;;;;6.30;4.00;;;;;;;15.03;100.00;100931.88;681292;28;4565;-52
2023/06/16 01:08:01;;;;;;;5.55;3.65;;;;;;;15.06;100.00;100929.19;682560;28;1227;-53
2023/06/16 01:08:37;;;;;;;5.35;3.60;;;;;;;15.09;100.00;100932.63;683969;28;1153;-50
2023/06/16 01:09:07;;;;;;;7.70;3.90;;;;;;;15.09;100.00;100932.63;682438;28;1038;-50
2023/06/16 01:09:44;;;;;;;6.70;3.70;;;;;;;15.09;100.00;100926.47;683445;28;1444;-52
2023/06/16 01:10:13;;;;;;;6.35;3.95;;;;;;;15.10;100.00;100933.50;682284;28;1466;-52
2023/06/16 01:11:09;;;;;;;5.95;3.65;;;;;;;15.08;100.00;100937.94;681365;29;5801;-53
2023/06/16 01:11:35;;;;;;;5.60;3.90;;;;;;;15.06;100.00;100937.09;678340;29;1212;-52
2023/06/16 01:12:03;;;;;;;5.15;3.50;;;;;;;15.06;100.00;100931.81;679087;29;1224;-52
2023/06/16 01:12:41;;;;;;;5.78;3.60;;;;;;;15.02;100.00;100930.13;679650;29;1390;-54
2023/06/16 01:13:35;;;;;;;7.18;3.80;;;;;;;14.97;100.00;100931.09;680037;28;1629;-52
2023/06/16 01:14:07;;;;;;;6.13;3.78;;;;;;;15.01;100.00;100933.66;678416;29;4928;-52
2023/06/16 01:14:39;;;;;;;6.30;3.58;;;;;;;15.00;100.00;100938.06;675674;29;1258;-52
2023/06/16 01:15:09;;;;;;;5.47;3.78;;;;;;;15.00;100.00;100926.69;678307;29;1522;-54
2023/06/16 01:15:31;;;;;;;5.60;3.80;;;;;;;15.00;100.00;100934.56;677950;29;1152;-52
2023/06/16 01:15:53;;;;;;;5.35;4.00;;;;;;;15.01;100.00;100933.66;678776;29;1962;-52
2023/06/16 01:16:18;;;;;;;5.55;3.92;;;;;;;15.03;100.00;100931.88;677431;29;4650;-51
2023/06/16 01:16:41;;;;;;;5.88;3.80;;;;;;;15.03;100.00;100927.47;679030;29;1583;-53
2023/06/16 01:17:05;;;;;;;4.93;3.70;;;;;;;15.01;100.00;100933.66;679238;28;1486;-52
2023/06/16 01:17:28;;;;;;;5.18;3.40;;;;;;;15.00;100.00;100931.94;681938;28;1183;-51
2023/06/16 01:17:53;;;;;;;5.60;3.65;;;;;;;14.98;100.00;100930.19;677651;29;1348;-52
2023/06/16 01:18:22;;;;;;;5.88;3.70;;;;;;;14.98;100.00;100934.56;674832;29;1527;-51
2023/06/16 01:18:44;;;;;;;5.30;3.80;;;;;;;15.03;100.00;100932.72;675669;29;1293;-52
2023/06/16 01:19:09;;;;;;;5.85;3.70;;;;;;;15.04;100.00;100938.88;672455;29;1671;-53
2023/06/16 01:19:37;;;;;;;5.72;3.70;;;;;;;15.02;100.00;100933.63;669199;29;4741;-53
2023/06/16 01:20:09;;;;;;;5.85;3.45;;;;;;;15.02;100.00;100936.25;674466;29;1249;-51
2023/06/16 01:20:38;;;;;;;7.43;3.65;;;;;;;15.02;100.00;100935.41;676212;29;1259;-53
2023/06/16 01:21:20;;;;;;;6.47;3.80;;;;;;;15.05;100.00;100935.34;678965;28;1631;-51
2023/06/16 01:21:47;;;;;;;6.53;3.88;;;;;;;15.05;100.00;100930.97;680979;28;1284;-51
2023/06/16 01:22:29;;;;;;;6.97;3.80;;;;;;;15.06;100.00;100931.81;680659;28;1518;-50
2023/06/16 01:23:08;;;;;;;6.50;3.60;;;;;;;15.04;100.00;100926.59;680315;29;5191;-50
2023/06/16 01:23:50;;;;;;;6.00;3.78;;;;;;;15.04;100.00;100928.34;681348;29;1189;-52
2023/06/16 01:24:16;;;;;;;6.22;3.75;;;;;;;15.04;100.00;100931.00;682043;28;1577;-53
2023/06/16 01:24:42;;;;;;;5.95;3.60;;;;;;;15.03;100.00;100930.09;682859;28;1197;-51
2023/06/16 01:25:03;;;;;;;6.60;3.78;;;;;;;15.03;100.00;100931.88;680350;28;1666;-51
2023/06/16 01:25:28;;;;;;;6.88;3.42;;;;;;;15.02;100.00;100932.78;681274;28;4524;-52
2023/06/16 01:25:49;;;;;;;6.15;3.50;;;;;;;15.02;100.00;100930.13;679339;29;1019;-51
2023/06/16 01:26:13;;;;;;;5.50;3.67;;;;;;;15.03;100.00;100929.25;679347;28;1476;-52
2023/06/16 01:26:40;;;;;;;5.70;3.50;;;;;;;15.06;100.00;100934.44;679035;29;1400;-52
2023/06/16 01:27:03;;;;;;;5.93;3.70;;;;;;;15.07;100.00;100931.78;674877;29;1493;-53
2023/06/16 01:27:29;;;;;;;5.93;3.90;;;;;;;15.07;100.00;100928.28;675862;29;1357;-51
2023/06/16 01:27:53;;;;;;;6.30;3.90;;;;;;;15.09;100.00;100931.75;674904;29;1255;-53
2023/06/16 01:28:18;;;;;;;6.32;3.72;;;;;;;15.14;100.00;100930.75;677211;29;4435;-52
2023/06/16 01:28:41;;;;;;;5.90;3.80;;;;;;;15.12;100.00;100934.34;681563;29;1345;-52
2023/06/16 01:29:05;;;;;;;6.45;4.00;;;;;;;15.11;100.00;100929.97;680123;28;1787;-53
2023/06/16 01:29:29;;;;;;;6.70;3.67;;;;;;;15.10;100.00;100928.22;679272;29;1272;-54
2023/06/16 01:29:51;;;;;;;5.78;3.70;;;;;;;15.07;100.00;100929.16;679302;29;1217;-54
2023/06/16 01:30:15;;;;;;;6.65;3.75;;;;;;;15.06;100.00;100931.81;680431;28;1562;-52
2023/06/16 01:30:42;;;;;;;7.40;3.92;;;;;;;15.04;100.00;100929.22;682136;29;1177;-53
2023/06/16 01:31:02;;;;;;;5.82;3.50;;;;;;;15.03;100.00;100931.88;679098;29;1464;-50
2023/06/16 01:31:25;;;;;;;5.60;3.55;;;;;;;15.03;100.00;100927.47;679843;28;4535;-50
2023/06/16 01:31:46;;;;;;;6.38;3.63;;;;;;;15.02;100.00;100925.72;681031;29;1319;-53
2023/06/16 01:32:08;;;;;;;4.90;3.35;;;;;;;15.03;100.00;100926.63;675215;29;1935;-51
2023/06/16 01:32:30;;;;;;;6.37;3.67;;;;;;;15.03;100.00;100931.88;674709;29;1115;-53
2023/06/16 01:32:53;;;;;;;5.90;3.97;;;;;;;15.02;100.00;100930.13;675918;29;1217;-52
2023/06/16 01:33:15;;;;;;;6.85;3.88;;;;;;;15.01;100.00;100931.03;678595;29;1498;-53
2023/06/16 01:33:37;;;;;;;6.32;3.40;;;;;;;15.01;100.00;100931.03;679833;29;1964;-54
2023/06/16 01:34:00;;;;;;;5.45;3.45;;;;;;;14.99;100.00;100925.78;681519;28;1216;-49
2023/06/16 01:34:21;;;;;;;4.97;3.28;;;;;;;15.00;100.00;100926.69;682951;28;4464;-52
2023/06/16 01:34:42;;;;;;;5.68;3.50;;;;;;;15.01;100.00;100928.41;682881;28;1148;-49
2023/06/16 01:35:03;;;;;;;6.93;3.70;;;;;;;15.00;100.00;100927.53;680543;28;2201;-53
2023/06/16 01:35:26;;;;;;;7.10;3.70;;;;;;;14.98;100.00;100929.31;681317;29;932;-52
2023/06/16 01:35:47;;;;;;;7.00;3.65;;;;;;;15.05;100.00;100936.22;677896;29;1919;-53
2023/06/16 01:36:09;;;;;;;7.75;3.88;;;;;;;15.06;100.00;100926.53;677438;29;1658;-53
2023/06/16 01:36:31;;;;;;;6.35;3.70;;;;;;;15.05;100.00;100927.44;679045;29;1264;-50
2023/06/16 01:36:54;;;;;;;7.20;3.78;;;;;;;15.04;100.00;100934.47;679729;29;1252;-53
2023/06/16 01:37:15;;;;;;;6.50;3.65;;;;;;;15.08;100.00;100932.66;679228;28;4624;-52
2023/06/16 01:37:38;;;;;;;5.25;3.65;;;;;;;15.08;100.00;100930.03;679763;29;1181;-52
2023/06/16 01:38:00;;;;;;;5.78;3.75;;;;;;;15.06;100.00;100937.09;678871;29;1683;-51
2023/06/16 01:38:23;;;;;;;5.63;3.80;;;;;;;15.07;100.00;100937.03;677095;29;1308;-53
2023/06/16 01:38:45;;;;;;;6.80;3.78;;;;;;;15.04;100.00;100933.63;678147;29;1213;-55
2023/06/16 01:39:07;;;;;;;5.95;3.40;;;;;;;15.03;100.00;100931.88;674609;29;1573;-52
2023/06/16 01:39:29;;;;;;;7.07;3.58;;;;;;;15.03;100.00;100926.63;676142;29;1455;-52
2023/06/16 01:39:50;;;;;;;8.13;4.05;;;;;;;15.00;100.00;100932.81;674447;29;1114;-53
2023/06/16 01:40:12;;;;;;;6.68;3.75;;;;;;;15.01;100.00;100937.19;673652;29;4562;-52
2023/06/16 01:40:34;;;;;;;6.38;3.90;;;;;;;15.00;100.00;100931.94;676623;29;1208;-52
2023/06/16 01:40:55;;;;;;;5.65;3.53;;;;;;;14.98;100.00;100932.84;677210;29;1083;-52
2023/06/16 01:41:18;;;;;;;6.18;3.67;;;;;;;14.99;100.00;100931.06;675504;29;1662;-50
2023/06/16 01:41:40;;;;;;;5.88;3.65;;;;;;;14.98;100.00;100932.84;673915;29;1278;-53
2023/06/16 01:42:02;;;;;;;6.90;3.80;;;;;;;14.99;100.00;100931.06;674810;29;1538;-52
2023/06/16 01:42:23;;;;;;;6.32;3.72;;;;;;;15.00;100.00;100931.94;675207;29;5379;-52
2023/06/16 01:42:46;;;;;;;6.57;3.80;;;;;;;15.00;100.00;100932.81;675313;29;1353;-53
2023/06/16 01:43:08;;;;;;;7.20;3.75;;;;;;;14.98;100.00;100929.31;674010;29;1309;-52
2023/06/16 01:43:29;;;;;;;7.63;4.00;;;;;;;14.96;100.00;100934.59;678741;29;4633;-52
2023/06/16 01:43:53;;;;;;;6.30;3.70;;;;;;;14.98;100.00;100929.31;676164;29;1293;-52
2023/06/16 01:44:16;;;;;;;5.30;3.60;;;;;;;14.97;100.00;100931.09;675931;29;1752;-53
2023/06/16 01:44:38;;;;;;;5.90;3.83;;;;;;;14.95;100.00;100927.63;676574;29;1169;-52
2023/06/16 01:44:59;;;;;;;5.63;3.63;;;;;;;14.95;100.00;100937.28;678795;28;1597;-53
2023/06/16 01:45:20;;;;;;;6.55;3.78;;;;;;;14.93;100.00;100937.31;679780;29;1269;-54
2023/06/16 01:45:42;;;;;;;6.50;3.90;;;;;;;14.89;100.00;100927.72;681068;29;1197;-52
2023/06/16 01:46:03;;;;;;;7.20;4.10;;;;;;;14.90;100.00;100924.22;677767;29;2095;-50
2023/06/16 01:46:24;;;;;;;7.22;3.67;;;;;;;14.88;100.00;100928.63;675966;29;4527;-51
2023/06/16 01:46:45;;;;;;;7.25;3.90;;;;;;;14.87;100.00;100931.28;676636;29;787;-50
2023/06/16 01:47:06;;;;;;;6.43;4.30;;;;;;;14.84;100.00;100937.47;676075;29;1492;-49
2023/06/16 01:47:29;;;;;;;6.25;4.13;;;;;;;14.84;100.00;100933.97;679187;29;1183;-51
2023/06/16 01:47:50;;;;;;;5.47;3.85;;;;;;;14.81;100.00;100921.75;677333;29;1083;-51
2023/06/16 01:48:11;;;;;;;6.30;3.78;;;;;;;14.81;100.00;100929.63;677342;29;1715;-53